Salmon Cove, Canada
Current Conditions -  °F | °C
As of 12:13 AM on Friday 28 Nov 2014 (Local Time) from CYYT Reporting Station
Broken Clouds Broken Clouds  
Wind Chill: 29°   Ceiling: 1300
Heat Index: 41°   Visibility: 15mi
Dew Point: 39°   Wind: 37mph
Humidity: 93%   Direction: 240°WSW
Pressure: 29.32"   Gusts: 48mph
Location:  47.78°N, 53.17°W
Report Text: CYYT 280313Z 24032G42KT 15SM BKN013 05/04 A2932 RMK SC7 SLP935
Loading
Personal Weather Stations






























Interactive Weather Map New forecast layout! Learn more

10-Day Weather Forecast

Advertisements
Track Severe Weather on mobile